Time;durP1;ratioP1;P1;durP2;ratioP2;P2;SDS_P1;SDS_P2;PMS_P1;PMS_P2;Temp;Humidity;BMP_temperature;BMP_pressure;BME280_temperature;BME280_humidity;BME280_pressure;Samples;Min_cycle;Max_cycle;Signal;HPM_P1;HPM_P2
2021/12/14 00:01:39;;;;;;;5.93;1.90;;;24.00;99.90;;;;;;5093274;28;20645;-74
2021/12/14 00:04:12;;;;;;;9.25;1.90;;;24.00;99.90;;;;;;5084210;28;20192;-74
2021/12/14 00:06:43;;;;;;;8.18;1.90;;;24.20;99.90;;;;;;5087110;28;20189;-74
2021/12/14 00:09:23;;;;;;;7.63;2.10;;;24.40;99.90;;;;;;5089169;28;20195;-74
2021/12/14 00:12:11;;;;;;;8.10;2.10;;;24.60;99.90;;;;;;5089877;28;20196;-74
2021/12/14 00:17:33;;;;;;;7.60;2.15;;;24.60;99.90;;;;;;5091774;28;20322;-74
2021/12/14 00:20:08;;;;;;;7.03;2.00;;;24.50;99.90;;;;;;5084769;28;20529;-75
2021/12/14 00:24:06;;;;;;;7.00;1.95;;;24.40;99.90;;;;;;5081811;28;20640;-74
2021/12/14 00:25:30;;;;;;;7.65;2.15;;;24.50;99.90;;;;;;5088692;28;20702;-74
2021/12/14 00:28:08;;;;;;;13.27;2.33;;;24.60;99.90;;;;;;5084980;28;20197;-74
2021/12/14 00:30:39;;;;;;;8.40;2.15;;;24.80;99.90;;;;;;5088033;28;20237;-74
2021/12/14 00:33:12;;;;;;;7.18;2.15;;;24.70;99.90;;;;;;5090641;28;20196;-74
2021/12/14 00:35:44;;;;;;;8.80;2.40;;;24.80;99.90;;;;;;5085766;28;20266;-74
2021/12/14 00:38:17;;;;;;;6.40;2.20;;;24.80;99.90;;;;;;5084004;28;20184;-74
2021/12/14 00:40:54;;;;;;;12.18;2.20;;;24.80;99.90;;;;;;5089501;28;20274;-74
2021/12/14 00:43:27;;;;;;;6.82;2.28;;;24.90;99.90;;;;;;5081031;28;20606;-74
2021/12/14 00:45:58;;;;;;;10.90;2.50;;;24.80;99.90;;;;;;5089107;28;20715;-76
2021/12/14 00:48:29;;;;;;;12.77;2.50;;;24.80;99.90;;;;;;5080163;28;20189;-75
2021/12/14 00:51:01;;;;;;;12.13;2.40;;;24.90;99.90;;;;;;5089807;28;20661;-74
2021/12/14 00:53:32;;;;;;;9.80;2.25;;;25.00;99.90;;;;;;5080696;28;20188;-74
2021/12/14 00:56:07;;;;;;;9.95;2.10;;;25.20;99.90;;;;;;5084745;28;20196;-75
2021/12/14 00:58:40;;;;;;;9.50;1.85;;;25.40;99.90;;;;;;5081616;28;20628;-75
2021/12/14 01:01:17;;;;;;;11.45;2.13;;;25.40;99.90;;;;;;5085574;28;20258;-75
2021/12/14 01:03:52;;;;;;;12.05;2.30;;;25.30;99.90;;;;;;5083926;28;20189;-75
2021/12/14 01:06:24;;;;;;;10.77;2.10;;;25.40;99.90;;;;;;5078706;28;20215;-75
2021/12/14 01:08:56;;;;;;;6.72;2.25;;;25.40;99.90;;;;;;5083089;28;20189;-75
2021/12/14 01:11:31;;;;;;;7.85;2.13;;;25.60;99.90;;;;;;5074544;28;20181;-74
2021/12/14 01:14:09;;;;;;;8.77;1.88;;;25.60;99.90;;;;;;5089504;28;20652;-75
2021/12/14 01:16:53;;;;;;;7.20;2.25;;;25.60;99.90;;;;;;5079127;28;20674;-74
2021/12/14 01:19:27;;;;;;;7.53;2.03;;;25.40;99.90;;;;;;5075920;28;20196;-74
2021/12/14 01:22:16;;;;;;;8.35;1.90;;;25.20;99.90;;;;;;5083941;28;20188;-75
2021/12/14 01:25:03;;;;;;;11.57;1.92;;;24.90;99.90;;;;;;5084511;28;20184;-75
2021/12/14 01:27:43;;;;;;;8.77;2.00;;;24.80;99.90;;;;;;5072968;28;20188;-72
2021/12/14 01:30:28;;;;;;;10.15;1.80;;;24.90;99.90;;;;;;5083686;28;20211;-74
2021/12/14 01:33:04;;;;;;;6.88;1.98;;;25.00;99.90;;;;;;5084399;28;20269;-74
2021/12/14 01:35:40;;;;;;;8.57;1.83;;;25.10;99.90;;;;;;5092384;28;20237;-74
2021/12/14 01:38:33;;;;;;;7.75;2.38;;;25.00;99.90;;;;;;5075669;28;20188;-74
2021/12/14 01:41:10;;;;;;;7.32;1.67;;;25.00;99.90;;;;;;5090657;28;20196;-73
2021/12/14 01:43:49;;;;;;;5.78;1.35;;;25.00;99.90;;;;;;5087093;28;20184;-75
2021/12/14 01:46:24;;;;;;;8.45;1.70;;;25.10;99.90;;;;;;5088902;28;20208;-74
2021/12/14 01:48:54;;;;;;;5.70;1.60;;;25.00;99.90;;;;;;5080544;28;20184;-75
2021/12/14 01:51:26;;;;;;;8.55;1.50;;;25.00;99.90;;;;;;5076773;28;20184;-74
2021/12/14 01:53:57;;;;;;;5.70;1.58;;;24.90;99.90;;;;;;5075367;28;20193;-74
2021/12/14 01:56:32;;;;;;;6.32;1.50;;;25.00;99.90;;;;;;5089736;28;20191;-74
2021/12/14 01:59:10;;;;;;;5.18;1.60;;;25.10;99.90;;;;;;5086537;28;20290;-74
2021/12/14 02:01:53;;;;;;;7.68;1.63;;;25.10;99.90;;;;;;5089533;28;20219;-74
2021/12/14 02:04:30;;;;;;;5.32;1.60;;;25.20;99.90;;;;;;5087614;28;20191;-74
2021/12/14 02:07:03;;;;;;;4.40;1.13;;;25.00;99.90;;;;;;5079939;28;20212;-73
2021/12/14 02:09:36;;;;;;;5.43;1.40;;;24.80;99.90;;;;;;5083198;28;20181;-73
2021/12/14 02:12:14;;;;;;;6.28;1.40;;;25.00;99.90;;;;;;5085173;28;20197;-74
2021/12/14 02:14:46;;;;;;;5.43;1.33;;;25.00;99.90;;;;;;5096088;28;20194;-73
2021/12/14 02:17:24;;;;;;;5.03;1.38;;;25.00;99.90;;;;;;5087431;28;20193;-74
2021/12/14 02:19:55;;;;;;;8.25;1.75;;;24.90;99.90;;;;;;5087637;28;20192;-73
2021/12/14 02:22:34;;;;;;;7.30;1.45;;;24.90;99.90;;;;;;5087491;28;20192;-73
2021/12/14 02:25:06;;;;;;;5.90;1.40;;;24.90;99.90;;;;;;5087224;28;20188;-73
2021/12/14 02:27:42;;;;;;;6.47;1.23;;;24.90;99.90;;;;;;5082940;28;20181;-74
2021/12/14 02:30:18;;;;;;;4.43;1.20;;;24.90;99.90;;;;;;5083958;28;20202;-73
2021/12/14 02:32:52;;;;;;;6.72;1.55;;;24.90;99.90;;;;;;5089986;28;20195;-75
2021/12/14 02:35:26;;;;;;;5.38;1.30;;;25.00;99.90;;;;;;5082823;28;20837;-76
2021/12/14 02:38:03;;;;;;;6.07;1.70;;;25.00;99.90;;;;;;5090195;28;20188;-75
2021/12/14 02:43:23;;;;;;;4.85;1.25;;;25.00;99.90;;;;;;5093153;28;20245;-75
2021/12/14 02:45:54;;;;;;;6.18;1.48;;;25.00;99.90;;;;;;5095350;28;20211;-74
2021/12/14 02:48:26;;;;;;;6.28;1.35;;;24.60;99.90;;;;;;5087167;28;20188;-73
2021/12/14 02:50:57;;;;;;;4.30;1.20;;;24.50;99.90;;;;;;5095419;28;20554;-73
2021/12/14 02:53:30;;;;;;;4.65;1.40;;;24.50;99.90;;;;;;5086956;28;20247;-75
2021/12/14 02:56:01;;;;;;;4.07;1.17;;;24.50;99.90;;;;;;5094958;28;20241;-74
2021/12/14 02:58:31;;;;;;;6.68;1.55;;;24.60;99.90;;;;;;5086817;28;20238;-74
2021/12/14 03:01:03;;;;;;;3.58;1.33;;;24.60;99.90;;;;;;5095061;28;20655;-74
2021/12/14 03:03:35;;;;;;;7.15;1.20;;;24.80;99.90;;;;;;5084065;28;20189;-74
2021/12/14 03:06:09;;;;;;;7.95;1.27;;;24.80;99.90;;;;;;5075325;28;20227;-74
2021/12/14 03:09:06;;;;;;;3.75;1.17;;;24.80;99.90;;;;;;5083504;28;20192;-74
2021/12/14 03:11:38;;;;;;;8.27;1.45;;;24.70;99.90;;;;;;5093643;28;20554;-74
2021/12/14 03:14:09;;;;;;;5.03;1.42;;;24.70;99.90;;;;;;5086666;28;20211;-74
2021/12/14 03:16:41;;;;;;;6.80;1.20;;;24.60;99.90;;;;;;5083460;28;20196;-74
2021/12/14 03:19:12;;;;;;;4.63;1.40;;;24.50;99.90;;;;;;5090894;28;20644;-73
2021/12/14 03:21:46;;;;;;;5.07;1.20;;;24.50;99.90;;;;;;5086722;28;20246;-74
2021/12/14 03:24:20;;;;;;;7.63;1.42;;;24.50;99.90;;;;;;5086470;28;20844;-75
2021/12/14 03:26:54;;;;;;;5.63;1.40;;;24.60;99.90;;;;;;5094202;28;20662;-75
2021/12/14 03:29:26;;;;;;;4.78;1.40;;;24.50;99.90;;;;;;5086179;28;20193;-74
2021/12/14 03:32:00;;;;;;;4.57;1.13;;;24.50;99.90;;;;;;5094265;28;20195;-75
2021/12/14 03:34:33;;;;;;;6.72;1.48;;;24.60;99.90;;;;;;5094152;28;20228;-74
2021/12/14 03:37:07;;;;;;;4.72;1.20;;;24.70;99.90;;;;;;5086223;28;20220;-76
2021/12/14 03:39:42;;;;;;;4.75;1.30;;;24.60;99.90;;;;;;5092543;28;20235;-75
2021/12/14 03:42:15;;;;;;;2.92;1.20;;;24.60;99.90;;;;;;5081708;28;20614;-75
2021/12/14 03:44:52;;;;;;;4.85;1.30;;;24.60;99.90;;;;;;5085812;28;20666;-75
2021/12/14 03:47:24;;;;;;;5.68;1.30;;;24.70;99.90;;;;;;5086078;28;20219;-75
2021/12/14 03:49:58;;;;;;;7.20;1.40;;;24.70;99.90;;;;;;5083024;28;20181;-75
2021/12/14 03:52:31;;;;;;;6.00;1.50;;;24.70;99.90;;;;;;5090607;28;20193;-74
2021/12/14 03:55:07;;;;;;;5.50;2.30;;;24.50;99.90;;;;;;5087408;28;20632;-74
2021/12/14 03:57:38;;;;;;;6.50;1.40;;;24.60;99.90;;;;;;5077662;28;20193;-73
2021/12/14 04:00:14;;;;;;;5.45;1.40;;;24.60;99.90;;;;;;5082368;28;20185;-73
2021/12/14 04:02:49;;;;;;;4.88;1.40;;;24.70;99.90;;;;;;5084277;28;20192;-73
2021/12/14 04:05:23;;;;;;;6.88;1.60;;;24.60;99.90;;;;;;5085841;28;20311;-74
2021/12/14 04:07:54;;;;;;;5.03;1.55;;;24.70;99.90;;;;;;5090378;28;20221;-74
2021/12/14 04:10:32;;;;;;;6.30;1.77;;;24.80;99.90;;;;;;5082534;28;20189;-74
2021/12/14 04:13:04;;;;;;;3.78;1.30;;;24.80;99.90;;;;;;5083693;28;20188;-74
2021/12/14 04:15:35;;;;;;;4.97;1.38;;;24.70;99.90;;;;;;5082227;28;20630;-74
2021/12/14 04:18:06;;;;;;;6.68;1.40;;;24.70;99.90;;;;;;5081968;28;20208;-75
2021/12/14 04:20:39;;;;;;;6.18;1.35;;;24.80;99.90;;;;;;5082066;28;20188;-74
2021/12/14 04:23:15;;;;;;;6.30;1.60;;;24.70;99.90;;;;;;5093075;28;20199;-74
2021/12/14 04:25:49;;;;;;;5.13;1.42;;;24.70;99.90;;;;;;5092895;28;20576;-75
2021/12/14 04:28:24;;;;;;;3.63;1.20;;;24.60;99.90;;;;;;5085626;28;20185;-75
2021/12/14 04:30:55;;;;;;;6.93;1.48;;;24.60;99.90;;;;;;5092787;28;20187;-75
2021/12/14 04:33:28;;;;;;;5.30;1.42;;;24.50;99.90;;;;;;5085033;28;20266;-75
2021/12/14 04:36:02;;;;;;;4.93;1.40;;;24.40;99.90;;;;;;5082387;28;20228;-74
2021/12/14 04:38:38;;;;;;;7.15;1.35;;;24.40;99.90;;;;;;5078422;28;20188;-75
2021/12/14 04:52:22;;;;;;;7.32;1.48;;;24.70;99.90;;;;;;5087553;28;20215;-75
2021/12/14 04:54:56;;;;;;;3.58;1.17;;;24.70;99.90;;;;;;5089743;28;20184;-75
2021/12/14 04:57:36;;;;;;;4.07;1.10;;;24.80;99.90;;;;;;5082435;28;20197;-75
2021/12/14 05:00:23;;;;;;;6.25;1.55;;;24.50;99.90;;;;;;5085807;28;20231;-74
2021/12/14 05:02:56;;;;;;;5.85;1.45;;;24.50;99.90;;;;;;5085087;28;20224;-75
2021/12/14 05:05:39;;;;;;;5.00;1.33;;;24.40;99.90;;;;;;5079906;28;20204;-76
2021/12/14 05:10:59;;;;;;;7.10;1.50;;;24.50;99.90;;;;;;5058221;28;20199;-75
2021/12/14 05:13:43;;;;;;;6.00;1.35;;;24.50;99.90;;;;;;5083979;28;20556;-75
2021/12/14 05:16:24;;;;;;;6.28;1.67;;;24.40;99.90;;;;;;5087757;28;20184;-75
2021/12/14 05:18:57;;;;;;;6.00;1.40;;;24.40;99.90;;;;;;5084073;28;20581;-74
2021/12/14 05:21:31;;;;;;;6.18;1.27;;;24.30;99.90;;;;;;5084720;28;20584;-75
2021/12/14 05:24:03;;;;;;;7.28;1.42;;;24.30;99.90;;;;;;5082462;28;20191;-75
2021/12/14 05:26:37;;;;;;;7.05;1.38;;;24.40;99.90;;;;;;5082559;28;20239;-75
2021/12/14 05:29:10;;;;;;;6.15;1.40;;;24.50;99.90;;;;;;5082603;28;20192;-74
2021/12/14 05:31:46;;;;;;;6.20;1.33;;;24.40;99.90;;;;;;5089848;28;20224;-75
2021/12/14 05:34:17;;;;;;;6.10;1.30;;;24.50;99.90;;;;;;5087509;28;20657;-75
2021/12/14 05:36:48;;;;;;;4.93;1.50;;;24.50;99.90;;;;;;5086011;28;20269;-75
2021/12/14 05:39:43;;;;;;;6.10;1.40;;;24.30;99.90;;;;;;5088979;28;20329;-75
2021/12/14 05:45:30;;;;;;;6.30;1.50;;;24.10;99.90;;;;;;5082888;28;20579;-75
2021/12/14 05:48:03;;;;;;;6.00;1.50;;;24.00;99.90;;;;;;5085438;28;20275;-76
2021/12/14 05:50:44;;;;;;;7.78;1.30;;;24.00;99.90;;;;;;5081872;28;20249;-75
2021/12/14 05:53:24;;;;;;;5.55;1.50;;;23.90;99.90;;;;;;5081261;28;20193;-74
2021/12/14 05:55:55;;;;;;;8.13;1.50;;;23.70;99.90;;;;;;5090622;28;20685;-75
2021/12/14 05:58:28;;;;;;;8.27;1.50;;;23.60;99.90;;;;;;5085041;28;20199;-75
2021/12/14 06:01:02;;;;;;;5.63;1.40;;;23.50;99.90;;;;;;5088162;28;20216;-75
2021/12/14 06:03:38;;;;;;;10.00;1.73;;;23.50;99.90;;;;;;5083167;28;20654;-75
2021/12/14 06:06:21;;;;;;;10.38;1.65;;;23.60;99.90;;;;;;5077149;28;20245;-74
2021/12/14 06:08:52;;;;;;;8.57;1.30;;;23.70;99.90;;;;;;5086710;28;20203;-75
2021/12/14 06:11:28;;;;;;;7.60;1.40;;;23.70;99.90;;;;;;5083657;28;20185;-74
2021/12/14 06:14:00;;;;;;;8.38;1.27;;;23.70;99.90;;;;;;5090062;28;20219;-75
2021/12/14 06:16:36;;;;;;;6.03;1.40;;;23.60;99.90;;;;;;5075995;28;20196;-75
2021/12/14 06:19:20;;;;;;;8.88;1.40;;;23.50;99.90;;;;;;5074127;28;20196;-75
2021/12/14 06:21:59;;;;;;;7.68;1.50;;;23.50;99.90;;;;;;5087477;28;20649;-75
2021/12/14 06:24:32;;;;;;;7.68;1.60;;;23.50;99.90;;;;;;5077716;28;20203;-76
2021/12/14 06:27:06;;;;;;;6.13;1.60;;;23.70;99.90;;;;;;5079493;28;20224;-74
2021/12/14 06:29:40;;;;;;;7.07;1.52;;;23.70;99.90;;;;;;5083748;28;20247;-74
2021/12/14 06:32:15;;;;;;;5.57;1.27;;;23.70;99.90;;;;;;5087607;28;20534;-75
2021/12/14 06:34:48;;;;;;;5.55;1.60;;;23.50;99.90;;;;;;5081669;28;20694;-74
2021/12/14 06:38:07;;;;;;;7.05;1.25;;;23.60;99.90;;;;;;5086040;28;20220;-76
2021/12/14 06:40:42;;;;;;;5.57;1.63;;;23.50;99.90;;;;;;5085654;28;20193;-75
2021/12/14 06:43:17;;;;;;;6.47;1.25;;;23.60;99.90;;;;;;5081414;28;20633;-75
2021/12/14 06:45:55;;;;;;;6.00;1.65;;;23.60;99.90;;;;;;5088262;28;20188;-75
2021/12/14 06:48:31;;;;;;;4.00;1.33;;;23.70;99.90;;;;;;5088364;28;20212;-76
2021/12/14 06:51:07;;;;;;;8.07;1.60;;;23.60;99.90;;;;;;5092066;28;20193;-76
2021/12/14 06:53:41;;;;;;;9.07;1.95;;;23.50;99.90;;;;;;5094040;28;20188;-76
2021/12/14 06:56:14;;;;;;;7.68;1.17;;;23.50;99.90;;;;;;5084469;28;20196;-75
2021/12/14 06:58:54;;;;;;;7.15;1.50;;;23.40;99.90;;;;;;5091462;28;20188;-74
2021/12/14 07:01:28;;;;;;;6.25;1.40;;;23.30;99.90;;;;;;5087625;28;20188;-75
2021/12/14 07:04:04;;;;;;;6.00;1.63;;;23.30;99.90;;;;;;5094221;28;20641;-75
2021/12/14 07:06:37;;;;;;;5.65;1.50;;;23.30;99.90;;;;;;5076631;28;20573;-76
2021/12/14 07:09:20;;;;;;;4.75;1.35;;;23.30;99.90;;;;;;5091218;28;20678;-75
2021/12/14 07:12:00;;;;;;;7.63;1.73;;;23.20;99.90;;;;;;5092285;28;20641;-75
2021/12/14 07:14:41;;;;;;;9.27;1.52;;;23.10;99.90;;;;;;5084814;28;20189;-74
2021/12/14 07:17:15;;;;;;;4.90;1.40;;;23.10;99.90;;;;;;5082888;28;20184;-74
2021/12/14 07:19:52;;;;;;;5.68;1.55;;;23.10;99.90;;;;;;5088355;28;20234;-75
2021/12/14 07:22:45;;;;;;;10.30;1.70;;;23.00;99.90;;;;;;5085157;28;20189;-74
2021/12/14 07:25:23;;;;;;;7.68;1.67;;;23.00;99.90;;;;;;5082862;28;20190;-74
2021/12/14 07:27:57;;;;;;;5.20;1.38;;;23.20;99.90;;;;;;5081047;28;20235;-74
2021/12/14 07:30:33;;;;;;;6.60;1.55;;;23.20;99.90;;;;;;5082576;28;20185;-74
2021/12/14 07:33:06;;;;;;;4.75;1.20;;;23.20;99.90;;;;;;5085023;28;20262;-73
2021/12/14 07:35:48;;;;;;;6.15;1.60;;;23.20;99.90;;;;;;5082490;28;20216;-74
2021/12/14 07:38:41;;;;;;;3.63;1.52;;;23.20;99.90;;;;;;5085650;28;20702;-74
2021/12/14 07:41:23;;;;;;;5.60;1.38;;;23.20;99.90;;;;;;5082328;28;20203;-74
2021/12/14 07:44:01;;;;;;;6.00;1.65;;;23.30;99.90;;;;;;5088735;28;20195;-74
2021/12/14 07:46:41;;;;;;;7.65;1.70;;;23.20;99.90;;;;;;5086583;28;20195;-74
2021/12/14 07:49:20;;;;;;;8.48;1.40;;;23.30;99.90;;;;;;5084661;28;20711;-74
2021/12/14 07:51:55;;;;;;;5.85;1.63;;;23.30;99.90;;;;;;5087658;28;20189;-74
2021/12/14 07:54:29;;;;;;;6.60;1.40;;;23.20;99.90;;;;;;5083102;28;20653;-74
2021/12/14 07:57:04;;;;;;;5.95;1.33;;;23.20;99.90;;;;;;5089834;28;20674;-74
2021/12/14 07:59:37;;;;;;;6.20;1.63;;;23.30;99.90;;;;;;5084540;28;20200;-74
2021/12/14 08:02:15;;;;;;;7.72;1.60;;;23.20;99.90;;;;;;5084848;28;20188;-73
2021/12/14 08:04:51;;;;;;;4.40;1.45;;;23.00;99.90;;;;;;5084695;28;20201;-74
2021/12/14 08:07:32;;;;;;;6.43;2.00;;;22.80;99.90;;;;;;5083591;28;20211;-74
2021/12/14 08:10:13;;;;;;;6.22;1.17;;;22.70;99.90;;;;;;5087945;28;20574;-75
2021/12/14 08:12:46;;;;;;;11.23;1.85;;;22.80;99.90;;;;;;5089355;28;20180;-75
2021/12/14 08:15:23;;;;;;;7.22;1.63;;;22.80;99.90;;;;;;5085153;28;20200;-75
2021/12/14 08:18:12;;;;;;;6.80;1.58;;;22.60;99.90;;;;;;5087950;28;20184;-74
2021/12/14 08:20:46;;;;;;;7.47;1.48;;;22.40;99.90;;;;;;5083630;28;20192;-74
2021/12/14 08:23:22;;;;;;;7.40;1.75;;;22.40;99.90;;;;;;5089026;28;20231;-74
2021/12/14 08:25:59;;;;;;;6.78;1.70;;;22.30;99.90;;;;;;5077084;28;20180;-74
2021/12/14 08:28:31;;;;;;;5.07;1.48;;;22.20;99.90;;;;;;5081090;28;20219;-74
2021/12/14 08:31:07;;;;;;;10.38;1.98;;;22.10;99.90;;;;;;5085607;28;20188;-74
2021/12/14 08:33:38;;;;;;;9.40;2.38;;;22.00;99.90;;;;;;5083904;28;20277;-74
2021/12/14 08:36:11;;;;;;;8.18;1.98;;;21.90;99.90;;;;;;5082605;28;20220;-74
2021/12/14 08:38:45;;;;;;;5.80;1.77;;;21.70;99.90;;;;;;5083610;28;20198;-74
2021/12/14 08:41:21;;;;;;;6.70;1.73;;;21.60;99.90;;;;;;5085167;28;20200;-74
2021/12/14 08:43:54;;;;;;;6.88;1.80;;;21.50;99.90;;;;;;5076375;28;20204;-74
2021/12/14 08:46:28;;;;;;;10.23;1.60;;;21.40;99.90;;;;;;5083932;28;20195;-74
2021/12/14 08:49:00;;;;;;;6.03;1.42;;;21.40;99.90;;;;;;5081799;28;20217;-74
2021/12/14 08:51:35;;;;;;;7.72;1.75;;;21.30;99.90;;;;;;5082519;28;20226;-75
2021/12/14 08:54:10;;;;;;;6.93;1.63;;;21.20;99.90;;;;;;5082298;28;20193;-74
2021/12/14 08:56:47;;;;;;;6.50;1.50;;;21.10;99.90;;;;;;5075172;28;20230;-74
2021/12/14 08:59:18;;;;;;;8.63;1.77;;;21.10;99.90;;;;;;5083868;28;20655;-73
2021/12/14 09:01:49;;;;;;;7.13;1.55;;;21.00;99.90;;;;;;5080770;28;20211;-74
2021/12/14 09:04:23;;;;;;;8.45;1.83;;;21.00;99.90;;;;;;5084410;28;20755;-74
2021/12/14 09:07:00;;;;;;;7.32;1.80;;;20.90;99.90;;;;;;5084223;28;20201;-74
2021/12/14 09:09:32;;;;;;;8.63;1.65;;;20.90;99.90;;;;;;5086059;28;20216;-75
2021/12/14 09:12:06;;;;;;;8.93;1.70;;;20.80;99.90;;;;;;5087074;28;20246;-74
2021/12/14 09:14:38;;;;;;;6.38;1.60;;;20.70;99.90;;;;;;5082251;28;20182;-74
2021/12/14 09:17:11;;;;;;;10.60;2.00;;;20.70;99.90;;;;;;5084147;28;20200;-75
2021/12/14 09:19:45;;;;;;;7.05;1.50;;;20.70;99.90;;;;;;5084872;28;20189;-75
2021/12/14 09:22:20;;;;;;;6.72;1.42;;;20.70;99.90;;;;;;5084760;28;20188;-74
2021/12/14 09:24:54;;;;;;;5.35;1.40;;;20.60;99.90;;;;;;5080144;28;20602;-75
2021/12/14 09:27:28;;;;;;;7.57;1.77;;;20.50;99.90;;;;;;5088444;28;20241;-75
2021/12/14 09:30:01;;;;;;;6.45;1.52;;;20.50;99.90;;;;;;5083908;28;20560;-74
2021/12/14 09:32:34;;;;;;;8.10;1.35;;;20.50;99.90;;;;;;5088798;28;20188;-75
2021/12/14 09:35:16;;;;;;;7.18;1.60;;;20.40;99.90;;;;;;5084090;28;20228;-75
2021/12/14 09:37:47;;;;;;;9.10;2.00;;;20.40;99.90;;;;;;5088393;28;20230;-74
2021/12/14 09:40:26;;;;;;;8.23;1.90;;;20.40;99.90;;;;;;5078568;28;20192;-75
2021/12/14 09:42:58;;;;;;;5.75;1.60;;;20.40;99.90;;;;;;5081845;28;20267;-74
2021/12/14 09:45:34;;;;;;;6.53;2.00;;;20.40;99.90;;;;;;5083595;28;20204;-74
2021/12/14 09:48:05;;;;;;;8.65;2.03;;;20.30;99.90;;;;;;5081123;28;20273;-74
2021/12/14 09:50:38;;;;;;;7.07;1.77;;;20.30;99.90;;;;;;5082863;28;20580;-75
2021/12/14 09:53:12;;;;;;;6.25;1.70;;;20.20;99.90;;;;;;5087072;28;20192;-74
2021/12/14 09:55:47;;;;;;;6.20;1.80;;;20.20;99.90;;;;;;5091539;28;20184;-74
2021/12/14 09:58:22;;;;;;;7.88;2.60;;;20.20;99.90;;;;;;5086790;28;20731;-74
2021/12/14 10:00:55;;;;;;;8.32;2.55;;;20.20;99.90;;;;;;5088157;28;20199;-74
2021/12/14 10:03:26;;;;;;;9.10;2.15;;;20.20;99.90;;;;;;5083792;28;20549;-74
2021/12/14 10:05:59;;;;;;;7.22;2.05;;;20.20;99.90;;;;;;5090190;28;20203;-74
2021/12/14 10:08:37;;;;;;;7.45;1.88;;;20.10;99.90;;;;;;5076503;28;20582;-74
2021/12/14 10:11:23;;;;;;;5.97;2.00;;;20.10;99.90;;;;;;5080315;28;20200;-74
2021/12/14 10:13:59;;;;;;;7.43;1.80;;;20.10;99.90;;;;;;5083828;28;20184;-73
2021/12/14 10:16:29;;;;;;;10.23;1.83;;;20.00;99.90;;;;;;5082410;28;20195;-73
2021/12/14 10:19:03;;;;;;;7.10;2.03;;;20.00;99.90;;;;;;5084172;28;20185;-74
2021/12/14 10:21:36;;;;;;;8.23;1.92;;;20.00;99.90;;;;;;5093176;28;20192;-74
2021/12/14 10:24:12;;;;;;;10.30;1.80;;;19.90;99.90;;;;;;5086289;28;20204;-74
2021/12/14 10:26:46;;;;;;;5.95;1.58;;;19.90;99.90;;;;;;5085269;28;20200;-74
2021/12/14 10:29:18;;;;;;;6.97;1.60;;;19.90;99.90;;;;;;5089443;28;20216;-74
2021/12/14 10:32:00;;;;;;;5.93;1.50;;;19.90;99.90;;;;;;5089434;28;21857;-74
2021/12/14 10:34:31;;;;;;;8.25;1.73;;;19.90;99.90;;;;;;5083543;28;20236;-74
2021/12/14 10:37:10;;;;;;;8.25;1.73;;;19.90;99.90;;;;;;5088520;28;20192;-73
2021/12/14 10:42:40;;;;;;;6.65;1.60;;;19.90;99.90;;;;;;5092323;28;20559;-74
2021/12/14 10:42:51;;;;;;;8.27;1.73;;;19.80;99.90;;;;;;5076584;28;20189;-74
2021/12/14 10:45:23;;;;;;;7.25;1.98;;;19.90;99.90;;;;;;5080083;28;20185;-73
2021/12/14 10:47:55;;;;;;;5.85;1.60;;;19.90;99.90;;;;;;5082005;28;20265;-74
2021/12/14 10:50:31;;;;;;;8.27;1.80;;;19.80;99.90;;;;;;5092710;28;20657;-74
2021/12/14 10:53:02;;;;;;;9.52;2.45;;;19.70;99.90;;;;;;5093821;28;20765;-74
2021/12/14 10:55:36;;;;;;;8.52;2.00;;;19.60;99.90;;;;;;5087975;28;20193;-74
2021/12/14 10:58:10;;;;;;;8.00;1.75;;;19.60;99.90;;;;;;5086848;28;20690;-74
2021/12/14 11:00:49;;;;;;;8.10;2.03;;;19.60;99.90;;;;;;5085239;28;20195;-74
2021/12/14 11:03:23;;;;;;;8.02;1.88;;;19.60;99.90;;;;;;5085529;28;20280;-73
2021/12/14 11:06:00;;;;;;;6.15;2.08;;;19.60;99.90;;;;;;5090027;28;20192;-73
2021/12/14 11:08:41;;;;;;;10.02;2.00;;;19.50;99.90;;;;;;5085744;28;20270;-73
2021/12/14 11:11:18;;;;;;;8.27;1.98;;;19.50;99.90;;;;;;5085627;28;20234;-73
2021/12/14 11:14:00;;;;;;;8.10;1.80;;;19.50;99.90;;;;;;5083155;28;20192;-73
2021/12/14 11:19:35;;;;;;;7.47;1.92;;;19.50;99.90;;;;;;5085263;28;20206;-73
2021/12/14 11:22:17;;;;;;;7.57;1.83;;;19.40;99.90;;;;;;5094130;28;20236;-73
2021/12/14 11:24:52;;;;;;;10.95;1.67;;;19.30;99.90;;;;;;5086533;28;20569;-73
2021/12/14 11:27:25;;;;;;;9.20;2.10;;;19.20;99.90;;;;;;5091701;28;20199;-73
2021/12/14 11:30:18;;;;;;;8.73;1.80;;;19.20;99.90;;;;;;5089581;28;20261;-73
2021/12/14 11:32:50;;;;;;;8.15;1.95;;;19.30;99.90;;;;;;5085708;28;20201;-74
2021/12/14 11:35:27;;;;;;;9.00;2.00;;;19.30;99.90;;;;;;5085632;28;20231;-74
2021/12/14 11:37:59;;;;;;;6.00;2.05;;;19.20;99.90;;;;;;5088474;28;20252;-74
2021/12/14 11:40:33;;;;;;;12.60;2.25;;;19.20;99.90;;;;;;5089062;28;20187;-74
2021/12/14 11:43:17;;;;;;;6.25;1.88;;;19.10;99.90;;;;;;5083042;28;20184;-74
2021/12/14 11:45:51;;;;;;;7.07;1.80;;;19.10;99.90;;;;;;5093301;28;20188;-74
2021/12/14 11:48:39;;;;;;;8.05;2.00;;;19.00;99.90;;;;;;5083730;28;20209;-74
2021/12/14 11:51:16;;;;;;;5.97;1.60;;;19.20;99.90;;;;;;5075546;28;20188;-74
2021/12/14 11:53:55;;;;;;;8.13;1.77;;;19.10;99.90;;;;;;5086979;28;20205;-74
2021/12/14 11:56:29;;;;;;;5.20;1.60;;;19.10;99.90;;;;;;5078855;28;20184;-75
2021/12/14 11:59:02;;;;;;;6.65;1.83;;;19.10;99.90;;;;;;5090942;28;20214;-74
2021/12/14 12:01:38;;;;;;;7.60;2.00;;;19.20;99.90;;;;;;5080332;28;20223;-74
2021/12/14 12:04:19;;;;;;;7.13;2.00;;;19.20;99.90;;;;;;5090450;28;20192;-74
2021/12/14 12:09:46;;;;;;;8.77;2.13;;;19.10;99.90;;;;;;5085577;28;20228;-74
2021/12/14 12:12:23;;;;;;;8.43;2.17;;;19.10;99.90;;;;;;5090779;28;20219;-73
2021/12/14 12:14:55;;;;;;;5.55;2.42;;;19.10;99.90;;;;;;5080202;28;20184;-73
2021/12/14 12:17:35;;;;;;;8.25;1.92;;;19.10;99.90;;;;;;5079750;28;20621;-73
2021/12/14 12:20:23;;;;;;;8.75;1.90;;;19.10;99.90;;;;;;5092807;28;20191;-73
2021/12/14 12:22:59;;;;;;;8.68;2.00;;;19.00;99.90;;;;;;5081960;28;20242;-74
2021/12/14 12:25:35;;;;;;;6.68;2.00;;;19.10;99.90;;;;;;5091887;28;20257;-73
2021/12/14 12:28:09;;;;;;;7.65;2.10;;;19.00;99.90;;;;;;5075433;28;20716;-73
2021/12/14 12:30:48;;;;;;;6.10;1.80;;;19.00;99.90;;;;;;5082080;28;20228;-73
2021/12/14 12:33:30;;;;;;;7.38;2.20;;;19.00;99.90;;;;;;5090224;28;20199;-74
2021/12/14 12:36:10;;;;;;;7.95;1.98;;;19.00;99.90;;;;;;5079211;28;20190;-74
2021/12/14 12:38:52;;;;;;;5.95;1.90;;;19.00;99.90;;;;;;5084571;28;20192;-74
2021/12/14 12:41:33;;;;;;;10.88;2.13;;;19.00;99.90;;;;;;5078436;28;20268;-74
2021/12/14 12:44:08;;;;;;;9.38;1.90;;;19.00;99.90;;;;;;5077646;28;20623;-74
2021/12/14 12:46:42;;;;;;;12.45;1.88;;;18.90;99.90;;;;;;5082465;28;20184;-74
2021/12/14 12:49:18;;;;;;;9.52;2.08;;;18.90;99.90;;;;;;5082156;28;20213;-74
2021/12/14 12:52:06;;;;;;;9.60;2.10;;;18.90;99.90;;;;;;5091859;28;20250;-73
2021/12/14 12:54:52;;;;;;;7.32;2.00;;;18.90;99.90;;;;;;5083947;28;20189;-74
2021/12/14 12:57:31;;;;;;;5.93;1.90;;;18.80;99.90;;;;;;5088491;28;20237;-74
2021/12/14 13:00:11;;;;;;;8.35;2.20;;;18.80;99.90;;;;;;5089198;28;20196;-74
2021/12/14 13:02:46;;;;;;;10.02;2.03;;;18.80;99.90;;;;;;5082472;28;20189;-74
2021/12/14 13:05:25;;;;;;;6.70;1.90;;;18.80;99.90;;;;;;5086592;28;20220;-74
2021/12/14 13:08:00;;;;;;;5.55;1.80;;;18.80;99.90;;;;;;5088318;28;20193;-74
2021/12/14 13:10:35;;;;;;;5.78;1.98;;;18.70;99.90;;;;;;5079949;28;20219;-74
2021/12/14 13:13:10;;;;;;;7.47;2.10;;;18.80;99.90;;;;;;5084027;28;20214;-73
2021/12/14 13:16:00;;;;;;;6.15;1.90;;;18.80;99.90;;;;;;5084577;28;20532;-73
2021/12/14 13:18:50;;;;;;;10.60;2.20;;;18.70;99.90;;;;;;5081283;28;20220;-74
2021/12/14 13:21:49;;;;;;;9.32;2.03;;;18.70;99.90;;;;;;5085871;28;20547;-74
2021/12/14 13:24:24;;;;;;;6.90;1.95;;;18.70;99.90;;;;;;5086443;28;20185;-74
2021/12/14 13:26:58;;;;;;;8.40;2.00;;;18.70;99.90;;;;;;5083785;28;20543;-74
2021/12/14 13:29:39;;;;;;;8.32;2.35;;;18.60;99.90;;;;;;5092675;28;20571;-74
2021/12/14 13:32:15;;;;;;;9.35;2.58;;;18.60;99.90;;;;;;5081579;28;20242;-74
2021/12/14 13:34:53;;;;;;;9.82;2.38;;;18.60;99.90;;;;;;5072658;28;20235;-73
2021/12/14 13:37:29;;;;;;;8.68;2.30;;;18.60;99.90;;;;;;5072835;28;20188;-74
2021/12/14 13:40:00;;;;;;;9.52;2.33;;;18.50;99.90;;;;;;5078274;28;20671;-74
2021/12/14 13:42:55;;;;;;;8.43;2.67;;;18.60;99.90;;;;;;5081202;28;20356;-74
2021/12/14 13:45:28;;;;;;;6.47;2.10;;;18.60;99.90;;;;;;5084339;28;20196;-74
2021/12/14 13:48:01;;;;;;;8.15;2.10;;;18.60;99.90;;;;;;5092075;28;20188;-74
2021/12/14 13:50:34;;;;;;;7.55;2.15;;;18.50;99.90;;;;;;5085567;28;20223;-75
2021/12/14 13:53:08;;;;;;;6.45;1.85;;;18.50;99.90;;;;;;5084449;28;20184;-74
2021/12/14 13:55:42;;;;;;;5.50;2.08;;;18.50;99.90;;;;;;5087783;28;20250;-74
2021/12/14 13:58:17;;;;;;;6.75;2.45;;;18.60;99.90;;;;;;5082351;28;20189;-74
2021/12/14 14:00:51;;;;;;;7.45;2.40;;;18.60;99.90;;;;;;5078490;28;20216;-74